Dagomys, Russia
Current Conditions -  °F | °C
As of 8:00 AM on Tuesday 21 Oct 2014 (Local Time) from URSS Reporting Station
Broken Clouds Broken Clouds  
Wind Chill: 50°   Ceiling: 30000
Heat Index: 50°   Visibility: 6mi
Dew Point: 41°   Wind: 13mph
Humidity: 71%   Direction: 70°ENE
Pressure: 30.03"   Gusts: NA
Location:  43.67°N, 39.63°E
Report Text: URSS 210500Z 07006MPS 9999 FEW026 BKN300 10/05 Q1017 NOSIG RMKR02/05006MPS MT OBSC QFE762 06000070 02000070
Loading
Personal Weather Stations






























Interactive Weather Map
Tropical Storm Tracking
New forecast layout! Learn more

10-Day Weather Forecast

Advertisements
Track Severe Weather on mobile